Time;durP1;ratioP1;P1;durP2;ratioP2;P2;SDS_P1;SDS_P2;PMS_P1;PMS_P2;Temp;Humidity;BMP_temperature;BMP_pressure;BME280_temperature;BME280_humidity;BME280_pressure;Samples;Min_cycle;Max_cycle;Signal;HPM_P1;HPM_P2
2021/11/28 09:26:13;;;;;;;11.93;10.23;;;;;;;4.83;82.48;94047.41;6344003;22;20022;-91
2021/11/28 09:28:39;;;;;;;13.82;11.18;;;;;;;5.09;82.76;94077.72;6318239;22;20331;-94
2021/11/28 09:31:10;;;;;;;13.13;9.55;;;;;;;5.09;82.84;94083.09;6319457;22;20014;-94
2021/11/28 09:33:36;;;;;;;;;;;;;;;5.21;81.62;94086.63;6291683;22;20029;-94
2021/11/28 09:36:01;;;;;;;12.38;9.98;;;;;;;5.06;82.17;94048.31;6316125;22;19902;-92
2021/11/28 09:38:27;;;;;;;36.25;10.90;;;;;;;5.31;83.03;94069.09;6319942;22;20085;-95
2021/11/28 09:40:54;;;;;;;11.57;9.20;;;;;;;5.24;81.17;94053.38;6317918;22;20084;-94
2021/11/28 09:43:21;;;;;;;20.20;10.50;;;;;;;5.03;82.53;94033.88;6320197;22;20064;-93
2021/11/28 09:45:47;;;;;;;16.80;10.30;;;;;;;5.20;82.21;94034.75;6319947;22;20002;-95
2021/11/28 09:48:13;;;;;;;73.32;13.43;;;;;;;5.26;82.73;94014.00;6319027;22;20010;-95
2021/11/28 09:50:39;;;;;;;16.52;10.93;;;;;;;5.41;82.50;94013.13;6317707;22;20441;-95
2021/11/28 09:53:05;;;;;;;13.98;10.27;;;;;;;5.50;81.76;94015.66;6316605;22;20005;-95
2021/11/28 09:55:31;;;;;;;13.35;10.23;;;;;;;5.72;82.06;94034.63;6317051;22;20002;-93
2021/11/28 09:57:57;;;;;;;14.68;10.55;;;;;;;5.57;81.52;94003.69;6316071;22;20156;-95
2021/11/28 10:00:23;;;;;;;13.98;10.85;;;;;;;5.90;81.57;94030.06;6316403;22;19999;-93
2021/11/28 10:02:49;;;;;;;12.75;11.05;;;;;;;5.63;82.03;93974.81;6315641;22;20431;-95
2021/11/28 10:05:15;;;;;;;19.55;11.65;;;;;;;5.95;81.80;94010.53;6317310;22;20024;-93
2021/11/28 10:07:43;;;;;;;12.93;10.70;;;;;;;5.92;80.82;93998.78;6317532;22;19999;-94
2021/11/28 10:10:10;;;;;;;11.70;9.85;;;;;;;5.91;80.67;93988.44;6315432;22;20327;-94
2021/11/28 10:12:42;;;;;;;15.13;11.68;;;;;;;6.08;80.78;94016.22;6315350;22;19998;-95
2021/11/28 10:15:14;;;;;;;14.38;11.25;;;;;;;5.83;80.88;93963.91;6316147;22;20007;-93
2021/11/28 10:17:40;;;;;;;13.52;11.20;;;;;;;5.92;80.59;93984.56;6314965;22;20006;-94
2021/11/28 10:20:10;;;;;;;13.85;11.15;;;;;;;5.92;79.38;93971.09;6314925;22;20005;-93
2021/11/28 10:22:36;;;;;;;13.38;11.15;;;;;;;5.97;79.60;93986.56;6314852;22;20011;-94
2021/11/28 10:25:17;;;;;;;18.77;10.75;;;;;;;5.60;79.63;93938.09;6318092;22;20010;-94
2021/11/28 10:27:52;;;;;;;12.20;9.80;;;;;;;5.96;79.92;93983.09;6317991;22;20003;-93
2021/11/28 10:30:34;;;;;;;12.73;10.15;;;;;;;6.03;79.71;93998.09;6321038;22;20055;-94
2021/11/28 10:33:13;;;;;;;13.55;10.20;;;;;;;6.08;79.20;93991.25;6318349;22;19994;-92
2021/11/28 10:36:02;;;;;;;13.45;9.30;;;;;;;6.06;79.20;93989.00;6315423;22;19999;-93
2021/11/28 10:38:40;;;;;;;12.32;9.85;;;;;;;5.76;79.58;93954.34;6315192;22;19999;-94
2021/11/28 10:41:28;;;;;;;13.65;10.23;;;;;;;5.73;79.80;93936.44;6315301;22;20090;-94
2021/11/28 10:43:55;;;;;;;12.00;9.80;;;;;;;5.88;79.50;93965.16;6315511;22;20439;-95
2021/11/28 10:46:28;;;;;;;12.93;9.50;;;;;;;5.83;79.14;93950.44;6314627;22;20002;-96
2021/11/28 10:49:12;;;;;;;12.15;10.30;;;;;;;5.74;79.42;93937.91;6314822;22;20002;-94
2021/11/28 10:51:41;;;;;;;12.02;9.88;;;;;;;5.85;80.36;93958.78;6316665;22;20020;-95
2021/11/28 10:54:26;;;;;;;14.30;10.80;;;;;;;6.02;79.76;93975.06;6319689;22;19999;-94
2021/11/28 10:57:06;;;;;;;30.15;13.60;;;;;;;5.75;79.66;93935.94;6322825;22;20003;-96
2021/11/28 10:59:33;;;;;;;26.85;15.82;;;;;;;5.84;79.14;93941.13;6317136;22;20013;-96
2021/11/28 11:01:59;;;;;;;24.75;14.70;;;;;;;5.93;80.26;93959.81;6315434;22;20488;-94
2021/11/28 11:04:29;;;;;;;24.60;15.00;;;;;;;5.88;80.90;93955.13;6316893;22;19999;-96
2021/11/28 11:07:09;;;;;;;22.88;16.00;;;;;;;5.81;80.31;93930.63;6315671;22;20021;-95
2021/11/28 11:09:41;;;;;;;20.13;14.68;;;;;;;5.80;79.62;93916.38;6315655;22;19998;-95
2021/11/28 11:12:18;;;;;;;20.20;14.88;;;;;;;5.79;79.87;93909.53;6316157;22;19999;-94
2021/11/28 11:14:44;;;;;;;17.92;13.45;;;;;;;5.75;81.57;93911.72;6314679;22;20038;-95
2021/11/28 11:17:13;;;;;;;19.77;14.40;;;;;;;5.88;81.18;93943.59;6314659;22;20002;-96
2021/11/28 11:19:40;;;;;;;24.13;15.63;;;;;;;5.84;80.97;93913.47;6315177;22;19999;-95
2021/11/28 11:22:15;;;;;;;27.38;17.13;;;;;;;5.93;80.92;93929.44;6314007;22;20051;-95
2021/11/28 11:24:49;;;;;;;32.50;18.63;;;;;;;5.76;81.18;93903.16;6318030;22;20094;-94
2021/11/28 11:27:20;;;;;;;26.63;17.38;;;;;;;5.93;82.15;93940.97;6319450;22;20327;-94
2021/11/28 11:29:48;;;;;;;25.58;16.45;;;;;;;5.85;82.36;93910.28;6317170;22;20086;-94
2021/11/28 11:32:26;;;;;;;21.55;15.40;;;;;;;5.94;81.58;93936.31;6317135;22;19999;-94
2021/11/28 11:34:57;;;;;;;21.33;14.32;;;;;;;5.87;82.45;93937.50;6316274;22;20010;-94
2021/11/28 11:37:26;;;;;;;25.92;17.83;;;;;;;5.75;81.16;93904.38;6315435;22;20065;-93
2021/11/28 11:39:53;;;;;;;27.20;19.45;;;;;;;5.79;82.08;93921.03;6314406;22;20007;-94
2021/11/28 11:42:22;;;;;;;29.20;19.65;;;;;;;5.76;82.15;93927.41;6314567;22;20007;-94
2021/11/28 11:44:48;;;;;;;26.55;19.27;;;;;;;5.78;83.32;93916.88;6314994;22;20051;-95
2021/11/28 11:47:14;;;;;;;25.20;18.40;;;;;;;5.85;83.12;93934.53;6314305;22;20002;-95
2021/11/28 11:49:41;;;;;;;25.67;18.15;;;;;;;5.69;83.58;93909.00;6316472;22;20009;-95
2021/11/28 11:52:08;;;;;;;26.48;18.02;;;;;;;5.64;84.13;93876.66;6316339;22;20052;-94
2021/11/28 11:54:46;;;;;;;23.02;16.42;;;;;;;5.91;84.55;93916.47;6317552;22;20002;-94
2021/11/28 11:57:18;;;;;;;22.55;16.60;;;;;;;5.61;84.18;93870.28;6315101;22;20030;-94
2021/11/28 12:00:02;;;;;;;27.63;18.05;;;;;;;5.85;85.19;93914.94;6316514;22;20014;-95
2021/11/28 12:02:36;;;;;;;26.33;19.58;;;;;;;5.74;86.02;93899.47;6315916;22;20010;-94
2021/11/28 12:05:22;;;;;;;26.02;19.23;;;;;;;5.78;84.96;93886.50;6314970;22;20055;-95
2021/11/28 12:07:52;;;;;;;27.92;20.00;;;;;;;5.65;87.35;93862.72;6315004;22;20006;-95
2021/11/28 12:10:40;;;;;;;22.27;16.48;;;;;;;5.74;86.32;93865.19;6315581;22;20082;-95
2021/11/28 12:13:14;;;;;;;23.23;16.15;;;;;;;5.97;85.89;93898.38;6315265;22;20005;-94
2021/11/28 12:15:49;;;;;;;22.23;16.75;;;;;;;5.81;89.17;93882.84;6316943;22;20369;-95
2021/11/28 12:18:54;;;;;;;23.52;18.23;;;;;;;5.98;87.70;93899.84;6316364;22;20082;-96
2021/11/28 12:21:31;;;;;;;25.73;18.77;;;;;;;6.00;86.84;93891.97;6253988;22;20003;-95
2021/11/28 12:24:09;;;;;;;26.33;20.42;;;;;;;6.07;87.69;93890.03;6314444;22;20409;-95
2021/11/28 12:26:36;;;;;;;32.53;23.48;;;;;;;6.12;86.70;93873.16;6314724;22;20010;-96
2021/11/28 12:29:11;;;;;;;32.17;23.33;;;;;;;6.09;87.15;93874.13;6313838;22;20335;-94
2021/11/28 12:31:51;;;;;;;33.67;23.35;;;;;;;6.03;87.62;93874.13;6313426;22;20089;-93
2021/11/28 12:34:25;;;;;;;32.83;24.27;;;;;;;5.86;88.71;93841.72;6315305;22;20006;-93
2021/11/28 12:36:55;;;;;;;33.83;24.05;;;;;;;5.93;88.63;93849.34;6313166;22;20237;-92
2021/11/28 12:39:24;;;;;;;30.60;21.98;;;;;;;6.10;88.04;93854.78;6312852;22;20058;-94
2021/11/28 12:42:08;;;;;;;26.52;19.50;;;;;;;6.17;88.06;93862.38;6318381;22;20052;-92
2021/11/28 12:44:53;;;;;;;45.47;20.45;;;;;;;6.22;88.15;93866.31;6320310;22;20011;-93
2021/11/28 12:50:53;;;;;;;30.83;20.58;;;;;;;6.11;88.24;93856.25;6345006;22;20025;-93
2021/11/28 12:53:27;;;;;;;26.52;20.35;;;;;;;5.94;87.25;93825.84;6313346;22;20006;-95
2021/11/28 12:56:11;;;;;;;28.02;21.38;;;;;;;6.21;87.59;93856.75;6312864;22;20009;-94
2021/11/28 12:59:09;;;;;;;31.63;21.65;;;;;;;6.27;87.42;93852.09;6319500;22;20032;-93
2021/11/28 13:01:51;;;;;;;25.90;17.90;;;;;;;6.32;87.45;93856.03;6313598;22;20002;-94
2021/11/28 13:04:38;;;;;;;26.35;17.30;;;;;;;6.37;87.11;93850.63;6313027;22;20026;-93
2021/11/28 13:07:24;;;;;;;20.33;14.63;;;;;;;6.18;87.25;93820.75;6312929;22;20441;-94
2021/11/28 13:09:54;;;;;;;19.27;13.18;;;;;;;6.13;87.67;93832.25;6313214;22;20010;-94
2021/11/28 13:12:21;;;;;;;20.40;12.63;;;;;;;6.06;87.37;93821.94;6312998;22;20312;-94
2021/11/28 13:14:46;;;;;;;17.10;11.52;;;;;;;6.10;88.69;93846.69;6312835;22;20010;-95
2021/11/28 13:17:12;;;;;;;18.25;12.60;;;;;;;6.06;89.01;93832.72;6312856;22;20064;-95
2021/11/28 13:19:37;;;;;;;15.13;10.80;;;;;;;6.12;87.88;93824.63;6313328;22;20007;-94
2021/11/28 13:22:16;;;;;;;13.68;9.80;;;;;;;6.15;88.56;93842.53;6313074;22;20002;-94
2021/11/28 13:24:42;;;;;;;14.02;10.50;;;;;;;6.09;89.30;93836.41;6313355;22;20439;-94
2021/11/28 13:27:07;;;;;;;14.90;11.00;;;;;;;6.02;88.41;93827.59;6313263;22;20007;-94
2021/11/28 13:29:34;;;;;;;14.00;9.60;;;;;;;6.07;87.54;93818.00;6312796;22;20056;-95
2021/11/28 13:32:00;;;;;;;17.92;9.00;;;;;;;6.28;88.82;93854.31;6312910;22;19998;-94
2021/11/28 13:34:31;;;;;;;13.80;8.05;;;;;;;6.13;88.17;93843.03;6313041;22;20081;-93
2021/11/28 13:36:57;;;;;;;10.15;6.72;;;;;;;6.06;88.02;93838.09;6312940;22;20038;-95
2021/11/28 13:39:25;;;;;;;10.68;6.65;;;;;;;6.25;86.78;93851.84;6312910;22;20030;-94
2021/11/28 13:41:53;;;;;;;9.27;5.78;;;;;;;6.01;87.38;93825.34;6312702;22;20003;-95
2021/11/28 13:44:23;;;;;;;8.18;4.43;;;;;;;6.06;86.62;93845.44;6312907;22;20010;-95
2021/11/28 13:46:51;;;;;;;5.25;3.63;;;;;;;6.08;86.49;93838.38;6314449;22;20464;-95
2021/11/28 13:49:27;;;;;;;8.20;4.22;;;;;;;6.18;86.83;93865.78;6319981;22;20423;-96
2021/11/28 13:51:56;;;;;;;8.57;4.85;;;;;;;6.19;85.84;93870.72;6316039;22;20003;-95
2021/11/28 13:54:36;;;;;;;8.90;4.10;;;;;;;6.05;85.80;93831.25;6312895;22;20006;-94
2021/11/28 13:57:03;;;;;;;7.88;3.67;;;;;;;6.17;86.13;93851.59;6312901;22;20419;-96
2021/11/28 13:59:32;;;;;;;5.22;3.40;;;;;;;6.13;86.12;93858.47;6315910;22;20456;-95
2021/11/28 14:02:05;;;;;;;3.47;2.67;;;;;;;6.16;86.05;93852.81;6312502;22;20015;-94
2021/11/28 14:04:31;;;;;;;4.78;2.70;;;;;;;6.04;84.64;93837.88;6312764;22;20010;-95
2021/11/28 14:06:57;;;;;;;3.08;2.38;;;;;;;5.91;85.55;93816.78;6312374;22;20002;-93
2021/11/28 14:09:23;;;;;;;4.07;2.20;;;;;;;6.00;84.43;93831.97;6312550;22;20013;-93
2021/11/28 14:11:50;;;;;;;5.68;3.05;;;;;;;5.94;84.60;93833.91;6312784;22;20003;-94
2021/11/28 14:14:19;;;;;;;5.00;3.47;;;;;;;5.79;84.56;93826.03;6312817;22;20026;-93
2021/11/28 14:16:58;;;;;;;4.18;2.50;;;;;;;5.76;83.49;93810.84;6313409;22;20038;-93
2021/11/28 14:19:35;;;;;;;3.72;1.90;;;;;;;5.61;83.93;93813.00;6312470;22;20010;-95
2021/11/28 14:26:13;;;;;;;8.25;2.40;;;;;;;5.91;84.83;93838.34;6336761;22;20044;-95
2021/11/28 14:28:43;;;;;;;6.35;2.72;;;;;;;5.87;83.34;93831.69;6312932;22;20011;-95
2021/11/28 14:31:16;;;;;;;4.85;2.28;;;;;;;5.68;84.72;93807.88;6312980;22;20011;-94
2021/11/28 14:34:20;;;;;;;8.15;3.60;;;;;;;5.91;83.85;93853.72;6313374;22;20378;-92
2021/11/28 14:36:46;;;;;;;6.47;3.20;;;;;;;5.77;84.40;93815.00;6271278;22;20102;-94
2021/11/28 14:39:13;;;;;;;7.88;3.67;;;;;;;5.77;86.38;93831.91;6305211;22;20035;-93
2021/11/28 14:41:39;;;;;;;4.28;2.72;;;;;;;5.87;84.76;93845.88;6309602;22;20052;-93
2021/11/28 14:47:30;;;;;;;9.20;4.00;;;;;;;5.49;85.29;93779.94;6310816;22;20006;-94
2021/11/28 14:50:02;;;;;;;15.68;7.85;;;;;;;5.76;85.63;93829.69;6309175;22;20010;-95
2021/11/28 14:52:37;;;;;;;12.57;6.20;;;;;;;5.60;86.46;93827.69;6309604;22;20003;-95
2021/11/28 14:55:21;;;;;;;12.30;7.30;;;;;;;5.62;86.20;93814.47;6309450;22;20480;-94
2021/11/28 14:57:50;;;;;;;12.10;6.70;;;;;;;5.53;85.62;93818.09;6309367;22;20003;-95
2021/11/28 15:00:33;;;;;;;10.50;5.80;;;;;;;5.68;84.98;93836.75;6309125;22;20026;-95
2021/11/28 15:03:15;;;;;;;8.18;4.88;;;;;;;5.70;86.27;93853.94;6309192;22;20082;-95
2021/11/28 15:05:47;;;;;;;7.70;5.32;;;;;;;5.42;86.82;93818.06;6309376;22;20029;-95
2021/11/28 15:08:18;;;;;;;7.07;3.65;;;;;;;5.69;86.06;93844.34;6309230;22;20362;-95
2021/11/28 15:10:52;;;;;;;5.50;3.13;;;;;;;5.68;85.77;93844.84;6309304;22;20011;-96
2021/11/28 15:13:27;;;;;;;3.40;2.20;;;;;;;5.58;84.67;93816.66;6309076;22;20000;-95
2021/11/28 15:15:56;;;;;;;3.05;2.10;;;;;;;5.69;85.46;93835.53;6309075;22;20089;-95
2021/11/28 15:18:23;;;;;;;5.85;2.03;;;;;;;5.50;84.78;93822.53;6308866;22;20003;-95
2021/11/28 15:20:48;;;;;;;3.08;1.88;;;;;;;5.38;86.24;93806.78;6309079;22;20007;-94
2021/11/28 15:23:14;;;;;;;3.28;2.10;;;;;;;5.24;86.52;93784.97;6308905;22;20092;-94
2021/11/28 15:25:40;;;;;;;6.03;2.45;;;;;;;5.35;86.73;93783.56;6309172;22;20010;-94
2021/11/28 15:28:06;;;;;;;4.32;2.00;;;;;;;5.47;86.40;93799.25;6308794;22;20074;-95
2021/11/28 15:30:34;;;;;;;2.40;1.88;;;;;;;5.61;85.26;93829.91;6309271;22;20025;-95
2021/11/28 15:33:00;;;;;;;4.22;1.95;;;;;;;5.48;86.43;93838.41;6308557;22;20006;-95
2021/11/28 15:35:27;;;;;;;4.68;2.20;;;;;;;5.43;86.82;93844.53;6308827;22;20003;-95
2021/11/28 15:37:55;;;;;;;2.85;1.88;;;;;;;5.31;86.74;93828.78;6308523;22;20019;-94
2021/11/28 15:40:26;;;;;;;3.15;1.70;;;;;;;5.52;86.12;93848.94;6309010;22;20018;-93
2021/11/28 15:42:57;;;;;;;3.03;1.90;;;;;;;5.31;86.21;93826.84;6308771;22;20078;-94
2021/11/28 15:45:23;;;;;;;;;;;;;;;5.52;85.52;93859.72;6309145;22;20003;-93
2021/11/28 15:47:49;;;;;;;4.40;2.33;;;;;;;5.63;85.89;93856.34;6308684;22;19906;-96
2021/11/28 15:50:16;;;;;;;3.72;2.83;;;;;;;5.51;86.36;93850.91;6308252;22;20063;-94
2021/11/28 15:52:42;;;;;;;3.42;2.90;;;;;;;5.43;86.22;93819.53;6308446;22;19999;-95
2021/11/28 15:55:15;;;;;;;5.15;3.50;;;;;;;5.47;86.06;93836.19;6308731;22;20018;-95
2021/11/28 15:57:42;;;;;;;3.92;3.08;;;;;;;5.61;85.78;93834.56;6308421;22;20007;-95
2021/11/28 16:00:12;;;;;;;3.55;2.35;;;;;;;5.55;84.76;93820.34;6308678;22;20007;-93
2021/11/28 16:02:38;;;;;;;2.97;2.20;;;;;;;5.49;84.98;93823.75;6308528;22;20038;-93
2021/11/28 16:05:03;;;;;;;3.33;2.45;;;;;;;5.68;84.28;93836.75;6308786;22;20039;-92
2021/11/28 16:07:32;;;;;;;4.82;2.90;;;;;;;5.67;84.74;93840.69;6308409;22;20082;-93
2021/11/28 16:09:58;;;;;;;4.97;3.25;;;;;;;5.46;85.82;93815.91;6308366;22;20454;-93
2021/11/28 16:12:24;;;;;;;15.55;5.43;;;;;;;5.55;85.59;93826.47;6308399;22;20006;-93
2021/11/28 16:14:49;;;;;;;11.50;6.10;;;;;;;5.34;86.32;93806.31;6308242;22;20008;-93
2021/11/28 16:17:15;;;;;;;10.15;6.60;;;;;;;5.52;85.17;93817.38;6307702;22;19999;-93
2021/11/28 16:19:41;;;;;;;10.77;6.70;;;;;;;5.51;85.88;93807.81;6307799;22;20435;-93
2021/11/28 16:22:06;;;;;;;8.27;6.25;;;;;;;5.50;85.87;93798.28;6307736;22;20003;-92
2021/11/28 16:24:32;;;;;;;8.25;5.95;;;;;;;5.49;85.63;93804.91;6307854;22;20007;-93
2021/11/28 16:26:57;;;;;;;9.38;5.28;;;;;;;5.66;85.51;93831.13;6308038;22;20426;-93
2021/11/28 16:29:24;;;;;;;3.78;3.38;;;;;;;5.34;86.38;93823.19;6308307;22;20003;-94
2021/11/28 16:31:49;;;;;;;3.80;3.17;;;;;;;5.47;86.26;93836.19;6307712;22;20011;-92
2021/11/28 16:34:15;;;;;;;5.55;4.10;;;;;;;5.22;87.27;93819.00;6307741;22;20434;-92
2021/11/28 16:36:40;;;;;;;3.60;3.28;;;;;;;5.24;86.96;93795.75;6307570;22;20026;-92
2021/11/28 16:39:07;;;;;;;4.57;2.30;;;;;;;5.47;86.61;93814.66;6307427;22;20454;-92
2021/11/28 16:41:34;;;;;;;4.18;2.50;;;;;;;5.44;85.68;93794.13;6307614;22;19999;-90
2021/11/28 16:44:02;;;;;;;4.78;2.63;;;;;;;5.21;86.17;93775.16;6307729;22;20007;-92
2021/11/28 16:46:28;;;;;;;5.88;2.92;;;;;;;5.37;85.96;93775.72;6307589;22;20469;-93
2021/11/28 16:48:54;;;;;;;6.10;2.72;;;;;;;5.11;86.58;93751.66;6307909;22;20374;-94
2021/11/28 16:51:20;;;;;;;4.88;3.42;;;;;;;5.40;87.13;93797.03;6307525;22;20003;-94
2021/11/28 16:53:45;;;;;;;5.10;3.05;;;;;;;5.40;87.11;93801.69;6308005;22;20003;-94
2021/11/28 16:56:11;;;;;;;12.23;3.55;;;;;;;5.32;87.83;93776.44;6307655;22;20003;-93
2021/11/28 16:58:37;;;;;;;27.08;4.50;;;;;;;5.18;87.57;93773.47;6307914;22;20029;-94
2021/11/28 17:01:04;;;;;;;5.00;3.20;;;;;;;5.29;86.81;93783.53;6308132;22;20006;-92
2021/11/28 17:03:30;;;;;;;4.97;3.22;;;;;;;5.31;86.19;93781.09;6310131;22;19995;-94
2021/11/28 17:05:56;;;;;;;5.93;4.00;;;;;;;5.42;86.06;93808.03;6308837;22;20427;-95
2021/11/28 17:08:22;;;;;;;7.72;4.80;;;;;;;5.36;86.56;93804.59;6307921;22;20060;-94
2021/11/28 17:10:49;;;;;;;7.28;5.07;;;;;;;5.43;85.63;93808.78;6307833;22;20003;-94
2021/11/28 17:13:15;;;;;;;9.48;6.05;;;;;;;5.03;86.28;93780.97;6307828;22;20024;-93
2021/11/28 17:15:41;;;;;;;7.32;5.43;;;;;;;5.04;87.36;93787.09;6307656;22;20027;-93
2021/11/28 17:18:08;;;;;;;9.70;7.13;;;;;;;5.33;86.53;93791.38;6307695;22;20026;-92
2021/11/28 17:20:36;;;;;;;11.73;6.97;;;;;;;5.36;88.20;93795.78;6308378;22;20003;-94
2021/11/28 17:23:01;;;;;;;10.20;7.13;;;;;;;5.18;87.60;93773.47;6309477;22;20007;-94
2021/11/28 17:25:36;;;;;;;10.25;6.97;;;;;;;5.47;86.93;93787.75;6308761;22;20487;-93
2021/11/28 17:28:05;;;;;;;12.52;8.70;;;;;;;5.36;87.00;93791.13;6313255;22;20492;-94
2021/11/28 17:30:31;;;;;;;13.15;8.20;;;;;;;5.02;87.12;93762.63;6309970;22;20074;-94
2021/11/28 17:33:02;;;;;;;15.82;10.65;;;;;;;5.36;86.78;93796.53;6310687;22;20059;-94
2021/11/28 17:35:28;;;;;;;15.25;10.38;;;;;;;5.19;86.53;93761.47;6311116;22;20003;-92
2021/11/28 17:37:54;;;;;;;15.02;11.00;;;;;;;5.24;87.10;93760.75;6309767;22;20502;-93
2021/11/28 17:40:19;;;;;;;14.18;9.73;;;;;;;5.37;87.04;93771.06;6310368;22;20007;-93
2021/11/28 17:42:46;;;;;;;12.07;8.73;;;;;;;5.26;87.73;93755.63;6308077;22;20082;-93
2021/11/28 17:45:13;;;;;;;11.95;8.77;;;;;;;5.33;86.77;93751.00;6307936;22;20082;-93
2021/11/28 17:47:41;;;;;;;12.88;9.18;;;;;;;5.17;87.88;93741.66;6307810;22;20014;-93
2021/11/28 17:50:08;;;;;;;12.48;8.05;;;;;;;5.12;86.91;93707.41;6307622;22;20057;-92
2021/11/28 17:52:33;;;;;;;9.60;7.78;;;;;;;5.14;87.17;93708.38;6307755;22;20007;-92
2021/11/28 17:54:59;;;;;;;11.27;6.97;;;;;;;5.31;86.95;93731.91;6307853;22;20081;-93
2021/11/28 17:57:25;;;;;;;7.90;5.82;;;;;;;5.14;87.56;93705.69;6307521;22;20010;-93
2021/11/28 17:59:50;;;;;;;8.18;5.25;;;;;;;5.07;87.15;93697.34;6307852;22;20431;-93
2021/11/28 18:02:16;;;;;;;6.35;4.47;;;;;;;5.06;87.01;93702.00;6310200;22;20006;-94
2021/11/28 18:04:42;;;;;;;9.00;5.25;;;;;;;5.40;85.62;93731.69;6307776;22;20041;-93
2021/11/28 18:07:07;;;;;;;9.65;5.32;;;;;;;5.07;86.16;93702.72;6307628;22;20003;-94
2021/11/28 18:09:33;;;;;;;7.30;5.38;;;;;;;5.35;85.94;93748.56;6308023;22;20065;-92
2021/11/28 18:11:59;;;;;;;7.75;5.40;;;;;;;5.10;86.89;93732.06;6310502;22;20003;-93
2021/11/28 18:14:26;;;;;;;9.23;6.30;;;;;;;5.17;86.55;93736.28;6309208;22;20003;-92
2021/11/28 18:16:52;;;;;;;8.90;7.65;;;;;;;4.99;87.21;93710.53;6309857;22;20010;-92
2021/11/28 18:19:22;;;;;;;10.02;7.03;;;;;;;4.99;87.58;93711.25;6311097;22;20010;-93
2021/11/28 18:21:49;;;;;;;10.30;6.70;;;;;;;5.17;87.21;93731.63;6309752;22;19999;-93
2021/11/28 18:24:15;;;;;;;12.23;8.15;;;;;;;5.14;86.69;93737.25;6309376;22;20544;-92
2021/11/28 18:26:41;;;;;;;12.70;8.57;;;;;;;5.08;87.31;93742.59;6309640;22;20007;-92
2021/11/28 18:29:06;;;;;;;10.77;7.55;;;;;;;4.77;88.00;93710.44;6309351;22;20013;-93
2021/11/28 18:31:32;;;;;;;12.95;9.35;;;;;;;4.82;88.23;93707.03;6309190;22;20078;-92
2021/11/28 18:33:57;;;;;;;13.30;9.00;;;;;;;5.10;87.97;93742.84;6309231;22;20081;-92
2021/11/28 18:36:23;;;;;;;13.63;10.32;;;;;;;4.88;88.20;93711.22;6313981;22;20109;-93
2021/11/28 18:38:49;;;;;;;16.42;11.20;;;;;;;5.16;88.52;93751.66;6314449;22;20040;-92
2021/11/28 18:41:19;;;;;;;18.13;13.80;;;;;;;5.02;88.17;93722.28;6314204;22;20002;-92
2021/11/28 18:43:44;;;;;;;66.57;21.00;;;;;;;4.99;90.00;93729.34;6314455;22;20010;-92
2021/11/28 18:46:10;;;;;;;26.67;19.60;;;;;;;5.22;88.76;93770.56;6314287;22;20021;-92
2021/11/28 18:48:36;;;;;;;27.85;20.70;;;;;;;5.17;88.45;93750.47;6314360;22;20033;-92
2021/11/28 18:51:01;;;;;;;28.35;21.33;;;;;;;5.15;88.03;93744.81;6314259;22;20441;-92
2021/11/28 18:53:27;;;;;;;27.42;20.27;;;;;;;5.30;87.62;93754.66;6314244;22;19998;-92
2021/11/28 18:55:52;;;;;;;36.78;24.77;;;;;;;5.20;87.73;93749.47;6314471;22;20002;-92
2021/11/28 18:58:18;;;;;;;34.45;23.88;;;;;;;5.22;88.51;93759.78;6314432;22;20038;-93
2021/11/28 19:00:44;;;;;;;36.08;23.17;;;;;;;5.25;88.41;93767.59;6314374;22;20033;-93
2021/11/28 19:03:09;;;;;;;27.88;18.55;;;;;;;5.06;88.54;93752.34;6314127;22;19995;-92
2021/11/28 19:05:35;;;;;;;24.00;17.10;;;;;;;4.97;88.29;93734.50;6314247;22;20056;-92
2021/11/28 19:08:01;;;;;;;32.08;21.20;;;;;;;4.98;88.55;93739.38;6314499;22;20038;-92
2021/11/28 19:10:27;;;;;;;38.30;23.48;;;;;;;4.99;88.31;93729.34;6316736;22;20060;-92
2021/11/28 19:12:55;;;;;;;35.50;22.27;;;;;;;5.21;88.54;93755.59;6313939;22;20003;-93
2021/11/28 19:15:21;;;;;;;37.45;23.48;;;;;;;5.29;88.27;93753.94;6313663;22;20002;-92
2021/11/28 19:17:48;;;;;;;37.90;23.77;;;;;;;5.17;88.77;93739.72;6314132;22;20007;-92
2021/11/28 19:20:15;;;;;;;36.72;25.20;;;;;;;5.02;88.95;93720.31;6313829;22;20056;-94
2021/11/28 19:22:40;;;;;;;36.55;24.95;;;;;;;5.20;89.04;93732.59;6313671;22;20005;-92
2021/11/28 19:25:07;;;;;;;40.92;27.90;;;;;;;5.10;88.98;93734.03;6314111;22;20007;-94
2021/11/28 19:27:33;;;;;;;45.95;25.00;;;;;;;5.22;89.15;93759.78;6313767;22;20067;-92
2021/11/28 19:29:59;;;;;;;37.15;25.33;;;;;;;5.28;89.16;93751.72;6313797;22;20040;-93
2021/11/28 19:32:25;;;;;;;49.80;32.88;;;;;;;5.29;87.95;93734.34;6313773;22;19998;-92
2021/11/28 19:34:50;;;;;;;50.13;31.27;;;;;;;5.26;88.28;93733.34;6313753;22;19999;-92
2021/11/28 19:37:16;;;;;;;53.72;32.65;;;;;;;5.31;89.07;93751.47;6313675;22;20385;-92
2021/11/28 19:39:42;;;;;;;45.35;29.10;;;;;;;5.20;88.33;93736.03;6313890;22;20021;-93
2021/11/28 19:42:07;;;;;;;44.78;27.50;;;;;;;5.22;88.60;93736.28;6313887;22;20063;-93
2021/11/28 19:44:33;;;;;;;34.80;22.65;;;;;;;5.15;87.56;93696.38;6313379;22;20013;-92
2021/11/28 19:46:59;;;;;;;35.40;22.73;;;;;;;5.36;87.91;93731.91;6313572;22;20063;-92
2021/11/28 19:49:25;;;;;;;39.95;26.10;;;;;;;5.03;89.25;93702.97;6313843;22;20002;-93
2021/11/28 19:51:51;;;;;;;45.55;27.50;;;;;;;5.19;89.20;93725.75;6313727;22;19995;-92
2021/11/28 19:54:18;;;;;;;42.10;25.10;;;;;;;5.02;88.56;93698.06;6313788;22;20089;-93
2021/11/28 19:56:45;;;;;;;41.88;26.75;;;;;;;5.22;89.06;93736.28;6313639;22;20007;-93
2021/11/28 19:59:10;;;;;;;45.88;27.30;;;;;;;4.95;89.82;93708.06;6313735;22;20026;-92
2021/11/28 20:01:40;;;;;;;38.53;25.13;;;;;;;4.92;90.40;93698.28;6313349;22;19999;-94
2021/11/28 20:04:07;;;;;;;39.30;24.30;;;;;;;4.89;90.16;93703.88;6313330;22;20010;-92
2021/11/28 20:06:33;;;;;;;37.67;23.15;;;;;;;4.88;89.81;93732.72;6313519;22;20060;-91
2021/11/28 20:08:58;;;;;;;32.70;22.10;;;;;;;5.04;89.29;93760.19;6313374;22;20007;-93
2021/11/28 20:11:25;;;;;;;27.13;17.95;;;;;;;5.09;89.32;93738.69;6313758;22;20009;-92
2021/11/28 20:14:03;;;;;;;53.53;18.20;;;;;;;5.05;90.38;93721.28;6314155;22;19999;-92
2021/11/28 20:16:31;;;;;;;27.95;18.73;;;;;;;5.13;89.33;93739.19;6313537;22;20036;-93
2021/11/28 20:18:57;;;;;;;28.45;19.80;;;;;;;5.29;89.14;93762.00;6313676;22;20426;-92
2021/11/28 20:21:23;;;;;;;29.85;20.05;;;;;;;5.15;89.71;93744.81;6313103;22;20034;-92
2021/11/28 20:23:49;;;;;;;27.95;19.15;;;;;;;5.32;89.68;93760.28;6313621;22;20011;-92
2021/11/28 20:26:16;;;;;;;30.65;19.83;;;;;;;5.09;89.43;93727.19;6313203;22;20052;-93
2021/11/28 20:28:43;;;;;;;28.15;18.40;;;;;;;5.38;89.03;93753.72;6313393;22;20084;-96
2021/11/28 20:31:09;;;;;;;26.73;17.95;;;;;;;5.36;89.51;93748.06;6313004;22;20013;-92
2021/11/28 20:33:35;;;;;;;26.40;17.60;;;;;;;5.09;89.19;93708.34;6313164;22;20025;-92
2021/11/28 20:36:02;;;;;;;25.67;16.85;;;;;;;5.13;89.05;93711.56;6312963;22;20412;-93
2021/11/28 20:38:28;;;;;;;24.60;15.60;;;;;;;5.29;89.22;93753.94;6312649;22;20050;-92
2021/11/28 20:40:55;;;;;;;21.35;14.25;;;;;;;5.18;89.37;93743.88;6313726;22;20419;-93
2021/11/28 20:43:20;;;;;;;21.10;13.98;;;;;;;5.02;89.56;93741.84;6312976;22;20078;-92
2021/11/28 20:45:46;;;;;;;16.98;12.10;;;;;;;5.04;89.62;93735.97;6313367;22;20087;-92
2021/11/28 20:48:12;;;;;;;15.95;11.15;;;;;;;4.99;89.67;93740.84;6313291;22;20003;-91
2021/11/28 20:50:38;;;;;;;13.70;9.98;;;;;;;4.92;89.81;93719.06;6312950;22;20034;-92
2021/11/28 20:53:04;;;;;;;14.50;9.40;;;;;;;4.97;89.30;93711.00;6313208;22;20006;-92
2021/11/28 20:55:30;;;;;;;15.00;11.02;;;;;;;5.24;88.62;93743.88;6312923;22;20338;-92
2021/11/28 20:57:55;;;;;;;13.05;9.48;;;;;;;5.35;88.54;93759.31;6312781;22;20010;-92
2021/11/28 21:00:28;;;;;;;17.25;11.43;;;;;;;5.00;88.17;93709.28;6312775;22;20334;-93
2021/11/28 21:02:54;;;;;;;23.13;13.88;;;;;;;5.25;89.10;93745.34;6312889;22;20494;-91
2021/11/28 21:05:21;;;;;;;15.50;10.88;;;;;;;5.15;88.12;93712.53;6313204;22;20002;-92
2021/11/28 21:07:48;;;;;;;15.50;11.07;;;;;;;5.17;88.16;93736.28;6312564;22;20493;-93
2021/11/28 21:10:14;;;;;;;17.73;11.90;;;;;;;5.18;89.42;93732.38;6313085;22;20002;-91
2021/11/28 21:12:41;;;;;;;14.75;10.68;;;;;;;5.12;89.05;93726.97;6312778;22;20009;-93
2021/11/28 21:15:11;;;;;;;15.07;9.93;;;;;;;5.17;89.64;93715.50;6312904;22;20030;-92
2021/11/28 21:17:37;;;;;;;14.32;9.05;;;;;;;5.06;88.63;93702.00;6313194;22;20006;-93